Time;durP1;ratioP1;P1;durP2;ratioP2;P2;SDS_P1;SDS_P2;PMS_P1;PMS_P2;Temp;Humidity;BMP_temperature;BMP_pressure;BME280_temperature;BME280_humidity;BME280_pressure;Samples;Min_cycle;Max_cycle;Signal;HPM_P1;HPM_P2
2022/01/22 00:02:22;;;;;;;0.47;0.47;;;4.30;99.90;;;;;;4437843;32;20107;-63
2022/01/22 00:04:47;;;;;;;1.15;0.68;;;4.30;99.90;;;;;;4439967;32;20169;-63
2022/01/22 00:07:13;;;;;;;0.40;0.40;;;4.40;99.90;;;;;;4440020;32;20077;-63
2022/01/22 00:09:46;;;;;;;0.40;0.40;;;4.40;99.90;;;;;;4442716;32;20065;-63
2022/01/22 00:12:22;;;;;;;0.32;0.32;;;4.40;99.90;;;;;;4440465;32;20081;-62
2022/01/22 00:14:48;;;;;;;1.85;0.95;;;4.50;99.90;;;;;;4438970;32;20069;-63
2022/01/22 00:17:13;;;;;;;0.40;0.40;;;4.50;99.90;;;;;;4439458;32;20402;-63
2022/01/22 00:19:39;;;;;;;1.95;0.60;;;4.50;99.90;;;;;;4440330;32;20084;-64
2022/01/22 00:22:04;;;;;;;0.32;0.32;;;4.50;99.90;;;;;;4441250;32;20069;-64
2022/01/22 00:24:37;;;;;;;0.55;0.43;;;4.50;99.90;;;;;;4437417;32;20101;-63
2022/01/22 00:27:03;;;;;;;0.50;0.50;;;4.50;99.90;;;;;;4438672;32;20082;-63
2022/01/22 00:29:28;;;;;;;0.50;0.50;;;4.50;99.90;;;;;;4440148;32;20076;-64
2022/01/22 00:31:53;;;;;;;0.30;0.30;;;4.50;99.90;;;;;;4440444;32;20387;-63
2022/01/22 00:34:19;;;;;;;0.43;0.43;;;4.60;99.90;;;;;;4441408;32;20065;-63
2022/01/22 00:36:44;;;;;;;0.47;0.47;;;4.60;99.90;;;;;;4439390;32;20065;-63
2022/01/22 00:39:10;;;;;;;0.30;0.30;;;4.60;99.90;;;;;;4441375;32;20056;-63
2022/01/22 00:41:36;;;;;;;0.30;0.30;;;4.60;99.90;;;;;;4439751;32;20056;-63
2022/01/22 00:44:01;;;;;;;0.37;0.37;;;4.60;99.90;;;;;;4442208;32;20089;-63
2022/01/22 00:46:27;;;;;;;0.40;0.40;;;4.50;99.90;;;;;;4439359;32;20073;-64
2022/01/22 00:48:53;;;;;;;0.90;0.70;;;4.60;99.90;;;;;;4440143;32;20456;-63
2022/01/22 00:51:18;;;;;;;0.40;0.40;;;4.60;99.90;;;;;;4438761;32;20807;-64
2022/01/22 00:53:44;;;;;;;0.30;0.30;;;4.70;99.90;;;;;;4440683;32;20053;-63
2022/01/22 00:56:09;;;;;;;0.30;0.30;;;4.70;99.90;;;;;;4440374;32;20084;-63
2022/01/22 00:58:35;;;;;;;0.40;0.40;;;4.70;99.90;;;;;;4440764;32;20135;-63
2022/01/22 01:01:00;;;;;;;0.35;0.35;;;4.70;99.90;;;;;;4439740;32;20127;-64
2022/01/22 01:03:30;;;;;;;0.30;0.30;;;4.70;99.90;;;;;;4441016;32;20113;-63
2022/01/22 01:05:56;;;;;;;0.50;0.50;;;4.70;99.90;;;;;;4439289;32;20140;-65
2022/01/22 01:08:21;;;;;;;0.40;0.40;;;4.80;99.90;;;;;;4440573;32;20155;-63
2022/01/22 01:10:48;;;;;;;0.40;0.40;;;4.80;99.90;;;;;;4440647;32;20081;-63
2022/01/22 01:13:15;;;;;;;0.62;0.62;;;4.70;99.90;;;;;;4439912;32;20065;-63
2022/01/22 01:15:54;;;;;;;0.50;0.50;;;4.80;99.90;;;;;;4440498;32;20115;-63
2022/01/22 01:32:10;;;;;;;0.30;0.30;;;4.90;99.90;;;;;;4449813;32;20096;-63
2022/01/22 01:34:40;;;;;;;1.45;0.60;;;4.90;99.90;;;;;;4440720;32;20131;-64
2022/01/22 01:37:06;;;;;;;0.30;0.30;;;4.80;99.90;;;;;;4441254;32;20120;-63
2022/01/22 01:39:34;;;;;;;0.25;0.25;;;4.90;99.90;;;;;;4440992;32;20058;-63
2022/01/22 01:42:06;;;;;;;0.20;0.20;;;4.80;99.90;;;;;;4443104;32;20068;-63
2022/01/22 01:44:32;;;;;;;0.40;0.40;;;4.80;99.90;;;;;;4442282;32;20064;-63
2022/01/22 01:47:02;;;;;;;0.30;0.30;;;4.80;99.90;;;;;;4443187;32;20077;-63
2022/01/22 01:49:28;;;;;;;0.43;0.43;;;4.80;99.90;;;;;;4442655;32;20910;-63
2022/01/22 01:51:57;;;;;;;0.30;0.30;;;4.90;99.90;;;;;;4439713;32;20049;-63
2022/01/22 01:54:31;;;;;;;0.30;0.30;;;4.80;99.90;;;;;;4438831;32;20448;-63
2022/01/22 01:57:58;;;;;;;0.30;0.30;;;4.80;99.90;;;;;;4440207;32;20073;-63
2022/01/22 01:59:46;;;;;;;0.75;0.43;;;4.80;99.90;;;;;;4439146;32;20061;-64
2022/01/22 02:02:12;;;;;;;0.40;0.40;;;4.90;99.90;;;;;;4443017;32;20119;-64
2022/01/22 02:04:38;;;;;;;0.93;0.55;;;5.00;99.90;;;;;;4441931;32;20118;-64
2022/01/22 02:07:05;;;;;;;0.30;0.30;;;5.00;99.90;;;;;;4439311;32;20415;-64
2022/01/22 02:09:33;;;;;;;0.30;0.30;;;4.90;99.90;;;;;;4442469;32;20587;-64
2022/01/22 02:12:05;;;;;;;0.30;0.30;;;5.00;99.90;;;;;;4444085;32;20061;-64
2022/01/22 02:23:33;;;;;;;0.35;0.35;;;4.90;99.90;;;;;;4440500;32;20060;-64
2022/01/22 02:23:46;;;;;;;0.30;0.30;;;4.80;99.90;;;;;;4441196;32;20148;-64
2022/01/22 02:25:31;;;;;;;0.30;0.30;;;4.90;99.90;;;;;;4450969;32;21315;-64
2022/01/22 02:27:59;;;;;;;0.30;0.30;;;4.90;99.90;;;;;;4441890;32;20076;-63
2022/01/22 02:30:29;;;;;;;0.40;0.40;;;4.90;99.90;;;;;;4439856;32;20088;-63
2022/01/22 02:33:18;;;;;;;0.30;0.30;;;4.90;99.90;;;;;;4437951;32;20747;-63
2022/01/22 02:35:50;;;;;;;0.30;0.30;;;4.90;99.90;;;;;;4441775;32;20069;-63
2022/01/22 02:38:23;;;;;;;0.30;0.30;;;4.90;99.90;;;;;;4441449;32;20097;-63
2022/01/22 02:40:49;;;;;;;0.37;0.37;;;4.90;99.90;;;;;;4441465;32;20065;-63
2022/01/22 02:43:16;;;;;;;0.47;0.47;;;4.90;99.90;;;;;;4440443;32;20085;-65
2022/01/22 02:45:44;;;;;;;0.43;0.43;;;4.80;99.90;;;;;;4441092;32;20085;-64
2022/01/22 02:48:10;;;;;;;0.28;0.28;;;4.80;99.90;;;;;;4442676;32;20082;-63
2022/01/22 02:50:35;;;;;;;0.30;0.30;;;4.90;99.90;;;;;;4442650;32;20084;-63
2022/01/22 02:53:03;;;;;;;0.70;0.60;;;4.90;99.90;;;;;;4441641;32;20221;-63
2022/01/22 02:55:29;;;;;;;0.40;0.40;;;4.90;99.90;;;;;;4441024;32;20069;-62
2022/01/22 02:57:55;;;;;;;0.30;0.25;;;4.80;99.90;;;;;;4440739;32;20061;-63
2022/01/22 03:00:22;;;;;;;0.30;0.30;;;4.80;99.90;;;;;;4441822;32;20060;-64
2022/01/22 03:02:49;;;;;;;0.40;0.40;;;4.70;99.90;;;;;;4440881;32;20085;-62
2022/01/22 03:05:16;;;;;;;0.30;0.30;;;4.70;99.90;;;;;;4441565;32;21271;-62
2022/01/22 03:07:44;;;;;;;0.30;0.30;;;4.70;99.90;;;;;;4441432;32;20077;-63
2022/01/22 03:10:12;;;;;;;1.55;0.75;;;4.70;99.90;;;;;;4440647;32;20084;-64
2022/01/22 03:15:35;;;;;;;0.40;0.40;;;4.70;99.90;;;;;;4441356;32;20045;-64
2022/01/22 03:18:08;;;;;;;0.45;0.45;;;4.60;99.90;;;;;;4450364;32;21630;-63
2022/01/22 03:20:46;;;;;;;0.30;0.30;;;4.70;99.90;;;;;;4441242;32;20100;-63
2022/01/22 03:27:39;;;;;;;0.20;0.20;;;4.60;99.90;;;;;;4439999;32;20045;-63
2022/01/22 03:28:29;;;;;;;0.35;0.35;;;4.60;99.90;;;;;;4439878;32;20423;-63
2022/01/22 03:30:54;;;;;;;0.30;0.30;;;4.50;99.90;;;;;;4441318;32;20101;-63
2022/01/22 03:33:22;;;;;;;0.30;0.30;;;4.60;99.90;;;;;;4441580;32;20069;-63
2022/01/22 03:35:54;;;;;;;0.30;0.30;;;4.60;99.90;;;;;;4443739;32;20057;-63
2022/01/22 03:38:20;;;;;;;0.30;0.30;;;4.50;99.90;;;;;;4441508;32;20130;-63
2022/01/22 03:40:49;;;;;;;0.30;0.30;;;4.60;99.90;;;;;;4441806;32;20077;-63
2022/01/22 03:43:15;;;;;;;0.60;0.60;;;4.50;99.90;;;;;;4441693;32;20104;-63
2022/01/22 03:45:41;;;;;;;0.25;0.25;;;4.50;99.90;;;;;;4441012;32;20085;-63
2022/01/22 03:48:06;;;;;;;0.30;0.30;;;4.50;99.90;;;;;;4439148;32;20447;-63
2022/01/22 03:50:32;;;;;;;0.40;0.40;;;4.40;99.90;;;;;;4441693;32;20397;-63
2022/01/22 03:52:57;;;;;;;0.30;0.30;;;4.30;99.90;;;;;;4440304;32;20719;-63
2022/01/22 03:55:38;;;;;;;0.37;0.37;;;4.30;99.90;;;;;;4439746;32;20123;-64
2022/01/22 03:58:04;;;;;;;0.50;0.50;;;4.30;99.90;;;;;;4439829;32;20510;-63
2022/01/22 04:00:29;;;;;;;0.37;0.37;;;4.20;99.90;;;;;;4441546;32;20061;-63
2022/01/22 04:05:22;;;;;;;0.30;0.30;;;4.20;99.90;;;;;;4439980;32;20446;-64
2022/01/22 04:08:10;;;;;;;0.37;0.37;;;4.20;99.90;;;;;;4441106;32;20076;-63
2022/01/22 04:10:34;;;;;;;0.60;0.60;;;4.10;99.90;;;;;;4437622;32;20089;-63
2022/01/22 04:13:11;;;;;;;0.30;0.30;;;4.00;99.90;;;;;;4440863;32;20104;-63
2022/01/22 04:15:39;;;;;;;0.25;0.25;;;4.00;99.90;;;;;;4439215;32;20097;-64
2022/01/22 04:24:55;;;;;;;0.50;0.50;;;4.00;99.90;;;;;;4437002;32;20057;-63
2022/01/22 04:26:36;;;;;;;0.30;0.30;;;4.00;99.90;;;;;;4438787;32;20090;-63
2022/01/22 04:29:02;;;;;;;0.55;0.55;;;3.90;99.90;;;;;;4439023;32;20131;-63
2022/01/22 04:31:27;;;;;;;0.30;0.30;;;3.80;99.90;;;;;;4440535;32;20092;-63
2022/01/22 04:33:53;;;;;;;0.35;0.35;;;3.90;99.90;;;;;;4437313;32;80460;-63
2022/01/22 04:36:19;;;;;;;0.30;0.30;;;3.90;99.90;;;;;;4441651;32;20143;-63
2022/01/22 04:38:44;;;;;;;0.30;0.30;;;3.80;99.90;;;;;;4441065;32;20107;-63
2022/01/22 04:41:10;;;;;;;0.30;0.30;;;3.80;99.90;;;;;;4440729;32;20076;-63
2022/01/22 04:43:38;;;;;;;0.40;0.40;;;3.80;99.90;;;;;;4442505;32;20057;-63
2022/01/22 04:46:11;;;;;;;0.45;0.45;;;3.80;99.90;;;;;;4441236;32;20153;-63
2022/01/22 04:49:13;;;;;;;0.90;0.52;;;3.80;99.90;;;;;;4439361;32;20113;-63
2022/01/22 04:52:35;;;;;;;0.52;0.52;;;3.80;99.90;;;;;;4439014;32;20263;-62
2022/01/22 04:55:08;;;;;;;0.35;0.35;;;3.70;99.90;;;;;;4437830;32;20113;-64
2022/01/22 04:56:54;;;;;;;1.65;1.27;;;3.60;99.90;;;;;;4436686;32;20073;-65
2022/01/22 04:59:20;;;;;;;0.32;0.32;;;3.60;99.90;;;;;;4438979;32;20477;-64
2022/01/22 05:01:46;;;;;;;3.10;2.25;;;3.40;99.90;;;;;;4440843;32;20169;-63
2022/01/22 05:04:11;;;;;;;0.30;0.30;;;3.50;99.90;;;;;;4440696;32;20073;-64
2022/01/22 05:06:37;;;;;;;1.58;1.48;;;3.50;99.90;;;;;;4441145;32;20093;-64
2022/01/22 05:09:03;;;;;;;0.22;0.22;;;3.60;99.90;;;;;;4442010;32;20497;-64
2022/01/22 05:11:29;;;;;;;0.40;0.40;;;3.60;99.90;;;;;;4438955;32;20120;-64
2022/01/22 05:13:54;;;;;;;0.35;0.35;;;3.70;99.90;;;;;;4439946;32;20072;-64
2022/01/22 05:16:21;;;;;;;0.40;0.40;;;3.70;99.90;;;;;;4440724;32;20096;-64
2022/01/22 05:18:54;;;;;;;0.40;0.40;;;3.70;99.90;;;;;;4439333;32;20081;-64
2022/01/22 05:21:21;;;;;;;0.35;0.35;;;3.60;99.90;;;;;;4438923;32;20089;-64
2022/01/22 05:23:47;;;;;;;0.40;0.40;;;3.60;99.90;;;;;;4439373;32;20116;-64
2022/01/22 05:26:42;;;;;;;0.30;0.30;;;3.70;99.90;;;;;;4440550;32;20077;-64
2022/01/22 05:30:07;;;;;;;6.85;1.15;;;3.80;99.90;;;;;;4437406;32;20093;-64
2022/01/22 05:37:03;;;;;;;0.30;0.30;;;3.90;99.90;;;;;;4437957;32;20105;-64
2022/01/22 05:39:30;;;;;;;0.30;0.30;;;3.90;99.90;;;;;;4440417;32;20097;-64
2022/01/22 05:41:58;;;;;;;0.62;0.62;;;3.90;99.90;;;;;;4438401;32;20776;-64
2022/01/22 05:44:24;;;;;;;0.60;0.60;;;3.90;99.90;;;;;;4439897;32;20548;-64
2022/01/22 05:46:52;;;;;;;0.35;0.35;;;3.80;99.90;;;;;;4438532;32;20064;-64
2022/01/22 05:49:20;;;;;;;0.37;0.37;;;3.90;99.90;;;;;;4438005;32;20127;-64
2022/01/22 05:51:47;;;;;;;0.40;0.40;;;3.80;99.90;;;;;;4439977;32;20089;-64
2022/01/22 05:54:33;;;;;;;0.40;0.40;;;3.90;99.90;;;;;;4440104;32;20077;-63
2022/01/22 05:59:44;;;;;;;0.77;0.77;;;3.70;99.90;;;;;;4438131;32;20160;-64
2022/01/22 06:02:15;;;;;;;0.35;0.35;;;3.60;99.90;;;;;;4439442;32;20151;-64
2022/01/22 06:04:42;;;;;;;0.30;0.30;;;3.70;99.90;;;;;;4440399;32;20052;-64
2022/01/22 06:07:08;;;;;;;0.37;0.32;;;3.60;99.90;;;;;;4437622;32;21595;-64
2022/01/22 06:09:37;;;;;;;0.30;0.30;;;3.60;99.90;;;;;;4439112;32;20119;-64
2022/01/22 06:12:15;;;;;;;0.30;0.30;;;3.60;99.90;;;;;;4439358;32;20089;-64
2022/01/22 06:14:41;;;;;;;0.30;0.30;;;3.60;99.90;;;;;;4439761;32;20085;-64
2022/01/22 06:17:06;;;;;;;0.37;0.37;;;3.50;99.90;;;;;;4440845;32;20191;-64
2022/01/22 06:19:32;;;;;;;0.30;0.30;;;3.50;99.90;;;;;;4441659;32;20200;-64
2022/01/22 06:21:58;;;;;;;0.40;0.40;;;3.40;99.90;;;;;;4441759;32;20073;-64
2022/01/22 06:24:24;;;;;;;4.72;0.50;;;3.40;99.90;;;;;;4442469;32;20077;-64
2022/01/22 06:26:49;;;;;;;0.30;0.30;;;3.30;99.90;;;;;;4440932;32;20068;-64
2022/01/22 06:29:16;;;;;;;0.40;0.40;;;3.20;99.90;;;;;;4441739;32;20520;-64
2022/01/22 06:31:42;;;;;;;0.30;0.30;;;3.10;99.90;;;;;;4443214;32;20345;-63
2022/01/22 06:34:08;;;;;;;0.40;0.40;;;3.10;99.90;;;;;;4443248;32;20077;-63
2022/01/22 06:36:34;;;;;;;0.30;0.30;;;3.00;99.90;;;;;;4443247;32;20084;-63
2022/01/22 06:39:17;;;;;;;2.17;1.48;;;2.90;99.90;;;;;;4441169;32;20580;-64
2022/01/22 06:41:44;;;;;;;0.30;0.30;;;3.00;99.90;;;;;;4442615;32;20162;-64
2022/01/22 06:44:16;;;;;;;0.50;0.50;;;3.00;99.90;;;;;;4441766;32;20069;-64
2022/01/22 06:46:43;;;;;;;0.30;0.30;;;2.90;99.90;;;;;;4441518;32;20101;-64
2022/01/22 06:49:09;;;;;;;0.30;0.30;;;2.80;99.90;;;;;;4443770;32;20081;-63
2022/01/22 06:51:35;;;;;;;0.40;0.40;;;2.80;99.90;;;;;;4439287;32;20097;-63
2022/01/22 06:54:03;;;;;;;0.55;0.55;;;2.70;99.90;;;;;;4441921;32;20088;-64
2022/01/22 06:56:30;;;;;;;0.30;0.30;;;2.70;99.90;;;;;;4441270;32;20085;-63
2022/01/22 06:58:57;;;;;;;0.30;0.30;;;2.60;99.90;;;;;;4441735;32;20073;-64
2022/01/22 07:01:23;;;;;;;0.40;0.40;;;2.60;99.90;;;;;;4443386;32;20088;-64
2022/01/22 07:03:49;;;;;;;0.30;0.30;;;2.50;99.90;;;;;;4442803;32;20221;-64
2022/01/22 07:06:15;;;;;;;0.40;0.40;;;2.50;99.90;;;;;;4442619;32;20660;-64
2022/01/22 07:08:40;;;;;;;0.30;0.30;;;2.70;99.90;;;;;;4441079;32;20080;-63
2022/01/22 07:11:06;;;;;;;3.35;1.58;;;2.70;99.90;;;;;;4439883;32;20076;-64
2022/01/22 07:13:32;;;;;;;0.35;0.35;;;2.80;99.90;;;;;;4440950;32;20148;-63
2022/01/22 07:15:57;;;;;;;0.50;0.50;;;2.90;99.90;;;;;;4441629;32;20088;-64
2022/01/22 07:18:23;;;;;;;0.40;0.40;;;3.00;99.90;;;;;;4442519;32;20474;-65
2022/01/22 07:20:51;;;;;;;1.05;1.00;;;3.00;99.90;;;;;;4440957;32;20454;-65
2022/01/22 07:23:21;;;;;;;0.32;0.32;;;3.10;99.90;;;;;;4440909;32;20065;-64
2022/01/22 07:25:46;;;;;;;0.85;0.82;;;3.20;99.90;;;;;;4440523;32;20084;-63
2022/01/22 07:28:13;;;;;;;0.50;0.50;;;3.20;99.90;;;;;;4439490;32;20085;-63
2022/01/22 07:30:40;;;;;;;0.65;0.55;;;3.20;99.90;;;;;;4441232;32;20073;-62
2022/01/22 07:33:06;;;;;;;0.37;0.37;;;3.20;99.90;;;;;;4441879;32;20073;-63
2022/01/22 07:35:35;;;;;;;0.50;0.50;;;3.30;99.90;;;;;;4441277;32;20288;-64
2022/01/22 07:38:02;;;;;;;1.12;0.50;;;3.30;99.90;;;;;;4440934;32;20552;-64
2022/01/22 07:40:28;;;;;;;0.40;0.40;;;3.40;99.90;;;;;;4437460;32;20073;-64
2022/01/22 07:42:54;;;;;;;0.40;0.40;;;3.40;99.90;;;;;;4441348;32;20476;-64
2022/01/22 07:45:20;;;;;;;0.50;0.50;;;3.50;99.90;;;;;;4441530;32;20144;-64
2022/01/22 07:47:45;;;;;;;0.55;0.55;;;3.40;99.90;;;;;;4441723;32;20057;-64
2022/01/22 07:50:11;;;;;;;0.30;0.30;;;3.30;99.90;;;;;;4439120;32;20077;-64
2022/01/22 07:52:36;;;;;;;35.47;0.93;;;3.20;99.90;;;;;;4440231;32;20205;-64
2022/01/22 07:55:03;;;;;;;1.10;0.88;;;3.20;99.90;;;;;;4440084;32;20085;-64
2022/01/22 07:57:29;;;;;;;0.30;0.30;;;3.20;99.90;;;;;;4436480;32;20081;-64
2022/01/22 07:59:54;;;;;;;0.40;0.40;;;3.30;99.90;;;;;;4439460;32;20517;-63
2022/01/22 08:02:20;;;;;;;0.80;0.60;;;3.40;99.90;;;;;;4440182;32;20481;-64
2022/01/22 08:04:45;;;;;;;0.40;0.40;;;3.40;99.90;;;;;;4438817;32;20084;-63
2022/01/22 08:07:11;;;;;;;0.37;0.37;;;3.30;99.90;;;;;;4440787;32;20092;-64
2022/01/22 08:09:36;;;;;;;0.40;0.40;;;3.40;99.90;;;;;;4441683;32;20080;-64
2022/01/22 08:12:02;;;;;;;0.60;0.60;;;3.50;99.90;;;;;;4440815;32;20089;-64
2022/01/22 08:14:28;;;;;;;5.47;1.20;;;3.50;99.90;;;;;;4439405;32;20208;-64
2022/01/22 08:16:53;;;;;;;0.30;0.30;;;3.50;99.90;;;;;;4442210;32;20092;-64
2022/01/22 08:19:20;;;;;;;0.40;0.40;;;3.60;99.90;;;;;;4440200;32;20073;-64
2022/01/22 08:21:46;;;;;;;0.30;0.30;;;3.60;99.90;;;;;;4440001;32;20136;-65
2022/01/22 08:24:13;;;;;;;0.30;0.30;;;3.70;99.90;;;;;;4438466;32;20088;-64
2022/01/22 08:26:45;;;;;;;1.35;0.90;;;3.70;99.90;;;;;;4440440;32;20143;-63
2022/01/22 08:29:10;;;;;;;0.55;0.55;;;3.70;99.90;;;;;;4441135;32;20619;-62
2022/01/22 08:36:04;;;;;;;2.72;0.93;;;3.80;99.90;;;;;;4440168;32;20065;-63
2022/01/22 08:36:50;;;;;;;0.75;0.68;;;3.80;99.90;;;;;;4438813;32;20105;-64
2022/01/22 08:39:17;;;;;;;0.60;0.60;;;3.80;99.90;;;;;;4440583;32;20077;-63
2022/01/22 08:41:43;;;;;;;1.23;0.55;;;3.80;99.90;;;;;;4440158;32;20088;-64
2022/01/22 08:44:10;;;;;;;1.65;0.70;;;3.80;99.90;;;;;;4440330;32;20080;-63
2022/01/22 08:46:36;;;;;;;0.30;0.30;;;3.80;99.90;;;;;;4440372;32;20427;-65
2022/01/22 08:49:04;;;;;;;0.30;0.30;;;3.90;99.90;;;;;;4441396;32;20069;-65
2022/01/22 08:51:32;;;;;;;0.90;0.80;;;3.90;99.90;;;;;;4441298;32;20085;-65
2022/01/22 08:53:59;;;;;;;0.35;0.35;;;3.80;99.90;;;;;;4440131;32;20088;-65
2022/01/22 08:56:24;;;;;;;0.30;0.30;;;3.90;99.90;;;;;;4441177;32;20080;-65
2022/01/22 08:58:50;;;;;;;0.40;0.40;;;3.90;99.90;;;;;;4441292;32;20936;-65
2022/01/22 09:01:15;;;;;;;0.30;0.30;;;3.90;99.90;;;;;;4441301;32;20077;-63
2022/01/22 09:03:41;;;;;;;0.52;0.52;;;3.80;99.90;;;;;;4441945;32;20061;-64
2022/01/22 09:06:08;;;;;;;0.30;0.30;;;3.90;99.90;;;;;;4440825;32;20112;-65
2022/01/22 09:08:34;;;;;;;2.85;1.40;;;3.90;99.90;;;;;;4441791;32;20438;-65
2022/01/22 09:10:59;;;;;;;0.88;0.88;;;3.90;99.90;;;;;;4439618;32;20085;-63
2022/01/22 09:13:26;;;;;;;1.95;1.05;;;4.00;99.90;;;;;;4441037;32;20150;-63
2022/01/22 09:15:54;;;;;;;0.45;0.45;;;3.90;99.90;;;;;;4440163;32;20072;-65
2022/01/22 09:18:20;;;;;;;0.37;0.37;;;4.00;99.90;;;;;;4440186;32;20281;-65
2022/01/22 09:23:25;;;;;;;0.40;0.40;;;4.00;99.90;;;;;;4439668;32;20080;-64
2022/01/22 09:25:50;;;;;;;0.57;0.57;;;4.10;99.90;;;;;;4438671;32;20152;-64
2022/01/22 09:28:16;;;;;;;0.40;0.40;;;4.10;99.90;;;;;;4439020;32;20576;-65
2022/01/22 09:30:42;;;;;;;0.45;0.45;;;4.20;99.90;;;;;;4439113;32;20567;-65
2022/01/22 09:33:08;;;;;;;1.45;0.95;;;4.10;99.90;;;;;;4441051;32;20062;-65
2022/01/22 09:35:34;;;;;;;6.62;0.73;;;4.20;99.90;;;;;;4440839;32;20077;-63
2022/01/22 09:37:59;;;;;;;5.07;1.10;;;4.20;99.90;;;;;;4440440;32;20736;-63
2022/01/22 09:40:28;;;;;;;0.30;0.30;;;4.10;99.90;;;;;;4439612;32;20115;-63
2022/01/22 09:42:53;;;;;;;0.40;0.40;;;4.00;99.90;;;;;;4436266;32;20121;-63
2022/01/22 09:45:21;;;;;;;0.40;0.40;;;4.10;99.90;;;;;;4439907;32;20513;-64
2022/01/22 09:47:48;;;;;;;0.30;0.30;;;4.20;99.90;;;;;;4439327;32;20076;-64
2022/01/22 09:50:16;;;;;;;1.37;0.70;;;4.30;99.90;;;;;;4441022;32;20073;-64
2022/01/22 09:52:43;;;;;;;0.32;0.32;;;4.30;99.90;;;;;;4442830;32;20089;-65
2022/01/22 09:55:09;;;;;;;0.40;0.40;;;4.30;99.90;;;;;;4441454;32;20073;-65
2022/01/22 09:57:36;;;;;;;0.40;0.40;;;4.30;99.90;;;;;;4439956;32;20073;-64
2022/01/22 10:00:08;;;;;;;2.30;0.88;;;4.30;99.90;;;;;;4440301;32;20093;-63
2022/01/22 10:02:41;;;;;;;0.43;0.43;;;4.30;99.90;;;;;;4443407;32;20119;-63
2022/01/22 10:05:26;;;;;;;0.50;0.50;;;4.30;99.90;;;;;;4442553;32;20069;-63
2022/01/22 10:07:53;;;;;;;0.50;0.50;;;4.30;99.90;;;;;;4442962;32;20093;-63
2022/01/22 10:10:19;;;;;;;0.40;0.40;;;4.40;99.90;;;;;;4444626;32;20097;-64
2022/01/22 10:12:48;;;;;;;0.88;0.75;;;4.40;99.90;;;;;;4444729;32;20093;-64
2022/01/22 10:15:16;;;;;;;0.37;0.37;;;4.50;99.90;;;;;;4443577;32;20146;-64
2022/01/22 10:17:54;;;;;;;0.35;0.35;;;4.50;99.90;;;;;;4442265;32;20081;-64
2022/01/22 10:20:25;;;;;;;0.82;0.82;;;4.50;99.90;;;;;;4442186;32;20104;-64
2022/01/22 10:22:52;;;;;;;0.20;0.20;;;4.50;99.90;;;;;;4440339;32;20081;-64
2022/01/22 10:25:25;;;;;;;0.40;0.40;;;4.40;99.90;;;;;;4440642;32;20084;-64
2022/01/22 10:27:56;;;;;;;0.65;0.55;;;4.60;99.90;;;;;;4440869;32;20391;-64
2022/01/22 10:30:21;;;;;;;;;;;4.60;99.90;;;;;;4441674;32;20077;-65
2022/01/22 10:32:52;;;;;;;1.02;0.95;;;4.60;99.90;;;;;;4440209;32;19955;-64
2022/01/22 10:35:22;;;;;;;0.30;0.30;;;4.60;99.90;;;;;;4439270;32;20089;-64
2022/01/22 10:37:54;;;;;;;3.00;1.10;;;4.70;99.90;;;;;;4443533;32;20519;-64
2022/01/22 10:40:30;;;;;;;0.52;0.47;;;4.80;99.90;;;;;;4441877;32;20108;-64
2022/01/22 10:43:20;;;;;;;0.30;0.30;;;4.90;99.90;;;;;;4442839;32;20072;-64
2022/01/22 10:46:10;;;;;;;0.30;0.30;;;5.00;99.90;;;;;;4437305;32;20206;-64
2022/01/22 10:48:38;;;;;;;0.57;0.57;;;5.00;99.90;;;;;;4439957;32;20479;-64
2022/01/22 10:51:07;;;;;;;0.20;0.20;;;4.80;99.90;;;;;;4441915;32;20068;-64
2022/01/22 10:53:43;;;;;;;0.22;0.22;;;4.80;99.90;;;;;;4439012;32;20093;-64
2022/01/22 10:56:11;;;;;;;0.50;0.50;;;4.80;99.90;;;;;;4441528;32;20174;-64
2022/01/22 10:58:51;;;;;;;0.95;0.93;;;4.80;99.90;;;;;;4439064;32;20093;-64
2022/01/22 11:01:17;;;;;;;0.77;0.62;;;5.00;99.90;;;;;;4439598;32;20130;-65
2022/01/22 11:03:42;;;;;;;0.40;0.40;;;5.00;99.90;;;;;;4442730;32;20081;-64
2022/01/22 11:06:25;;;;;;;0.28;0.28;;;5.00;99.90;;;;;;4441498;32;20494;-64
2022/01/22 11:08:51;;;;;;;0.35;0.35;;;5.00;99.90;;;;;;4439384;32;20520;-64
2022/01/22 11:11:17;;;;;;;0.50;0.50;;;5.00;99.90;;;;;;4439757;32;20061;-64
2022/01/22 11:13:42;;;;;;;0.43;0.43;;;5.00;99.90;;;;;;4441377;32;20521;-64
2022/01/22 11:16:09;;;;;;;0.40;0.40;;;5.00;99.90;;;;;;4443901;32;20069;-64
2022/01/22 11:18:37;;;;;;;0.20;0.20;;;5.20;99.90;;;;;;4443006;32;20069;-63
2022/01/22 11:21:04;;;;;;;0.30;0.30;;;5.40;99.90;;;;;;4439583;32;20572;-64
2022/01/22 11:23:33;;;;;;;1.45;0.75;;;5.40;99.90;;;;;;4440534;32;20084;-64
2022/01/22 11:26:01;;;;;;;0.30;0.30;;;5.40;99.90;;;;;;4438802;32;20517;-64
2022/01/22 11:28:26;;;;;;;0.35;0.35;;;5.30;99.90;;;;;;4438351;32;20066;-63
2022/01/22 11:30:53;;;;;;;0.95;0.85;;;5.20;99.90;;;;;;4442436;32;20135;-64
2022/01/22 11:33:21;;;;;;;0.50;0.45;;;5.10;99.90;;;;;;4439941;32;20081;-63
2022/01/22 11:35:52;;;;;;;0.60;0.60;;;5.10;99.90;;;;;;4442736;32;20073;-64
2022/01/22 11:38:30;;;;;;;0.40;0.40;;;5.10;99.90;;;;;;4442181;32;20078;-63
2022/01/22 11:41:15;;;;;;;0.40;0.40;;;5.00;99.90;;;;;;4439578;32;20099;-63
2022/01/22 11:44:06;;;;;;;0.37;0.37;;;4.90;99.90;;;;;;4441553;32;20559;-63
2022/01/22 11:46:37;;;;;;;0.30;0.30;;;4.90;99.90;;;;;;4441051;32;20073;-65
2022/01/22 11:49:19;;;;;;;;;;;5.00;99.90;;;;;;4443856;32;20199;-64
2022/01/22 11:51:47;;;;;;;0.30;0.30;;;5.20;99.90;;;;;;4437371;32;19971;-64
2022/01/22 11:54:15;;;;;;;0.52;0.40;;;5.30;99.90;;;;;;4435212;32;20061;-64
2022/01/22 11:56:43;;;;;;;0.30;0.30;;;5.20;99.90;;;;;;4438217;32;20128;-64
2022/01/22 11:59:15;;;;;;;0.30;0.30;;;5.20;99.90;;;;;;4441186;32;20088;-65
2022/01/22 12:01:52;;;;;;;0.40;0.40;;;5.20;99.90;;;;;;4440855;32;20073;-64
2022/01/22 12:04:20;;;;;;;0.40;0.40;;;5.20;99.90;;;;;;4439306;32;20116;-65
2022/01/22 12:07:03;;;;;;;0.85;0.85;;;5.10;99.90;;;;;;4438808;32;20571;-64
2022/01/22 12:09:42;;;;;;;0.50;0.50;;;5.10;99.90;;;;;;4441225;32;20155;-64
2022/01/22 12:14:28;;;;;;;0.40;0.40;;;5.00;99.90;;;;;;4440957;32;20089;-63
2022/01/22 12:15:09;;;;;;;0.40;0.40;;;5.20;99.90;;;;;;4438793;32;20144;-63
2022/01/22 12:17:57;;;;;;;0.37;0.37;;;5.20;99.90;;;;;;4439873;32;20058;-64
2022/01/22 12:23:17;;;;;;;0.88;0.80;;;5.00;99.90;;;;;;4438189;32;20068;-64
2022/01/22 12:25:45;;;;;;;1.27;1.15;;;5.00;99.90;;;;;;4439020;32;20132;-65
2022/01/22 12:28:13;;;;;;;0.68;0.68;;;5.00;99.90;;;;;;4440620;32;20475;-65
2022/01/22 12:30:43;;;;;;;0.30;0.30;;;5.10;99.90;;;;;;4440312;32;20188;-65
2022/01/22 12:33:14;;;;;;;2.25;1.15;;;5.10;99.90;;;;;;4440541;32;20586;-65
2022/01/22 12:35:42;;;;;;;0.57;0.57;;;5.20;99.90;;;;;;4438155;32;20775;-65
2022/01/22 12:38:21;;;;;;;0.30;0.30;;;5.10;99.90;;;;;;4442249;32;20073;-65
2022/01/22 12:40:51;;;;;;;0.50;0.50;;;5.10;99.90;;;;;;4440078;32;20113;-65
2022/01/22 12:43:26;;;;;;;0.40;0.40;;;5.20;99.90;;;;;;4439829;32;20064;-65
2022/01/22 12:45:57;;;;;;;0.47;0.47;;;5.00;99.90;;;;;;4439917;32;20487;-65
2022/01/22 12:48:28;;;;;;;9.23;1.25;;;5.00;99.90;;;;;;4438351;32;20074;-64
2022/01/22 12:51:00;;;;;;;0.30;0.30;;;5.00;99.90;;;;;;4438721;32;20120;-65
2022/01/22 12:53:25;;;;;;;0.30;0.30;;;5.00;99.90;;;;;;4437420;32;20138;-65
2022/01/22 12:58:22;;;;;;;0.50;0.50;;;5.20;99.90;;;;;;4438804;32;20113;-65
2022/01/22 13:00:51;;;;;;;0.50;0.40;;;5.30;99.90;;;;;;4438603;32;20556;-65
2022/01/22 13:03:33;;;;;;;0.30;0.30;;;5.30;99.90;;;;;;4439758;32;20100;-65
2022/01/22 13:05:58;;;;;;;0.28;0.28;;;5.30;99.90;;;;;;4437818;32;20285;-65
2022/01/22 13:08:29;;;;;;;0.60;0.60;;;5.40;99.90;;;;;;4439160;32;20425;-65
2022/01/22 13:10:56;;;;;;;0.52;0.52;;;5.60;99.90;;;;;;4437678;32;20057;-64
2022/01/22 13:13:21;;;;;;;0.65;0.62;;;5.40;99.90;;;;;;4440503;32;20191;-65
2022/01/22 13:15:59;;;;;;;0.30;0.30;;;5.50;99.90;;;;;;4440106;32;20080;-64
2022/01/22 13:18:24;;;;;;;0.50;0.50;;;5.50;99.90;;;;;;4441514;32;20147;-65
2022/01/22 13:20:50;;;;;;;0.40;0.40;;;5.50;99.90;;;;;;4438271;32;20109;-64
2022/01/22 13:23:18;;;;;;;0.30;0.30;;;5.60;99.90;;;;;;4438822;32;20103;-64
2022/01/22 13:25:43;;;;;;;2.55;1.30;;;5.60;99.90;;;;;;4437871;32;20072;-64
2022/01/22 13:28:12;;;;;;;0.40;0.40;;;5.50;99.90;;;;;;4438078;32;20081;-64
2022/01/22 13:30:45;;;;;;;1.92;1.25;;;5.50;99.90;;;;;;4439672;32;20140;-64
2022/01/22 13:33:18;;;;;;;0.70;0.40;;;5.50;99.90;;;;;;4438923;32;20089;-64
2022/01/22 13:35:57;;;;;;;0.30;0.30;;;5.60;99.90;;;;;;4437903;32;20127;-64
2022/01/22 13:39:07;;;;;;;6.40;0.55;;;5.60;99.90;;;;;;4440093;32;20118;-64
2022/01/22 13:45:08;;;;;;;0.55;0.45;;;5.60;99.90;;;;;;4438814;32;20073;-64
2022/01/22 13:47:48;;;;;;;0.30;0.30;;;5.60;99.90;;;;;;4434814;32;20459;-64
2022/01/22 13:49:36;;;;;;;0.40;0.40;;;5.50;99.90;;;;;;4438308;32;20090;-64
2022/01/22 13:52:08;;;;;;;0.30;0.30;;;5.40;99.90;;;;;;4438638;32;20128;-65
2022/01/22 13:54:37;;;;;;;4.47;0.90;;;5.50;99.90;;;;;;4438704;32;20513;-64
2022/01/22 13:57:08;;;;;;;0.62;0.62;;;5.50;99.90;;;;;;4439672;32;20096;-65
2022/01/22 13:59:39;;;;;;;0.82;0.80;;;5.50;99.90;;;;;;4439584;32;20097;-64
2022/01/22 14:02:27;;;;;;;0.52;0.52;;;5.50;99.90;;;;;;4439154;32;20100;-64
2022/01/22 14:05:00;;;;;;;0.30;0.30;;;5.50;99.90;;;;;;4439231;32;20128;-64